createdAt,value
2019-05-16T00:01:01.648Z,16.27
2019-05-16T00:03:28.162Z,16.70
2019-05-16T00:05:54.788Z,21.62
2019-05-16T00:08:21.176Z,18.70
2019-05-16T00:10:48.687Z,20.30
2019-05-16T00:13:18.606Z,20.72
2019-05-16T00:15:45.041Z,17.75
2019-05-16T00:18:11.200Z,19.32
2019-05-16T00:20:38.643Z,18.10
2019-05-16T00:23:05.105Z,18.67
2019-05-16T00:25:31.669Z,19.07
2019-05-16T00:27:58.654Z,22.02
2019-05-16T00:30:25.231Z,19.07
2019-05-16T00:32:51.521Z,19.98
2019-05-16T00:35:18.355Z,17.25
2019-05-16T00:37:44.831Z,19.30
2019-05-16T00:40:11.290Z,20.15
2019-05-16T00:42:39.135Z,20.27
2019-05-16T00:45:08.889Z,19.45
2019-05-16T00:47:34.916Z,20.92
2019-05-16T00:50:01.413Z,16.42
2019-05-16T00:52:28.936Z,19.42
2019-05-16T00:54:58.025Z,21.17
2019-05-16T00:57:25.331Z,17.67
2019-05-16T00:59:52.294Z,18.00
2019-05-16T01:02:18.493Z,18.00
2019-05-16T01:04:44.678Z,19.23
2019-05-16T01:07:11.156Z,18.00
2019-05-16T01:09:38.556Z,19.17
2019-05-16T01:12:24.933Z,16.55
2019-05-16T01:14:51.187Z,18.67
2019-05-16T01:17:18.237Z,18.92
2019-05-16T01:19:44.673Z,19.45
2019-05-16T01:22:10.892Z,18.87
2019-05-16T01:24:38.660Z,16.05
2019-05-16T01:27:05.192Z,19.30
2019-05-16T01:29:31.365Z,16.67
2019-05-16T01:31:58.985Z,18.90
2019-05-16T01:34:25.420Z,18.27
2019-05-16T01:36:51.594Z,19.70
2019-05-16T01:39:18.313Z,21.70
2019-05-16T01:41:44.712Z,18.32
2019-05-16T01:44:10.928Z,17.85
2019-05-16T01:46:39.116Z,19.20
2019-05-16T01:49:05.166Z,20.50
2019-05-16T01:51:31.340Z,18.85
2019-05-16T01:53:58.040Z,21.23
2019-05-16T01:56:24.319Z,19.07
2019-05-16T01:58:50.514Z,18.15
2019-05-16T02:01:19.050Z,18.70
2019-05-16T02:03:45.027Z,16.40
2019-05-16T02:06:11.391Z,18.00
2019-05-16T02:08:38.067Z,19.98
2019-05-16T02:11:04.331Z,16.80
2019-05-16T02:13:30.486Z,19.32
2019-05-16T02:15:59.051Z,20.70
2019-05-16T02:18:24.767Z,21.55
2019-05-16T02:20:50.977Z,19.37
2019-05-16T02:23:18.739Z,21.02
2019-05-16T02:25:45.214Z,19.10
2019-05-16T02:28:11.404Z,18.17
2019-05-16T02:30:37.770Z,18.00
2019-05-16T02:33:05.753Z,22.60
2019-05-16T02:35:31.938Z,19.37
2019-05-16T02:38:00.736Z,18.50
2019-05-16T02:40:26.581Z,21.48
2019-05-16T02:42:55.954Z,19.87
2019-05-16T02:45:24.643Z,20.17
2019-05-16T02:47:51.351Z,20.45
2019-05-16T02:50:18.009Z,19.67
2019-05-16T02:52:44.174Z,21.73
2019-05-16T02:55:11.625Z,19.62
2019-05-16T02:57:41.519Z,17.10
2019-05-16T03:00:12.061Z,18.05
2019-05-16T03:02:37.502Z,18.70
2019-05-16T03:05:04.991Z,19.70
2019-05-16T03:07:40.609Z,22.55
2019-05-16T03:10:01.616Z,22.73
2019-05-16T03:12:30.903Z,24.07
2019-05-16T03:15:01.834Z,18.12
2019-05-16T03:17:26.546Z,20.35
2019-05-16T03:19:56.589Z,21.42
2019-05-16T03:22:24.573Z,20.72
2019-05-16T03:24:51.508Z,20.80
2019-05-16T03:27:21.354Z,21.82
2019-05-16T03:29:46.031Z,20.12
2019-05-16T03:32:13.895Z,18.25
2019-05-16T03:34:43.865Z,17.48
2019-05-16T03:37:13.568Z,19.15
2019-05-16T03:39:36.478Z,20.02
2019-05-16T03:42:02.644Z,17.27
2019-05-16T03:44:31.766Z,20.15
2019-05-16T03:46:56.941Z,21.48
2019-05-16T03:49:23.126Z,20.57
2019-05-16T03:51:50.610Z,20.62
2019-05-16T03:54:16.908Z,17.48
2019-05-16T03:56:43.223Z,22.48
2019-05-16T03:59:11.099Z,20.88
2019-05-16T04:01:40.667Z,21.80
2019-05-16T04:04:05.587Z,18.30
2019-05-16T04:06:32.851Z,19.67
2019-05-16T04:09:01.518Z,21.23
2019-05-16T04:11:27.247Z,20.70
2019-05-16T04:13:53.468Z,20.48
2019-05-16T04:16:20.912Z,20.55
2019-05-16T04:18:47.552Z,19.17
2019-05-16T04:21:17.564Z,18.85
2019-05-16T04:23:42.841Z,21.90
2019-05-16T04:26:11.263Z,19.75
2019-05-16T04:28:37.111Z,21.50
2019-05-16T04:31:03.270Z,21.30
2019-05-16T04:33:30.843Z,21.80
2019-05-16T04:35:57.484Z,19.60
2019-05-16T04:38:40.287Z,17.30
2019-05-16T04:40:51.929Z,18.85
2019-05-16T04:43:22.164Z,18.55
2019-05-16T04:45:47.259Z,20.57
2019-05-16T04:48:13.528Z,20.10
2019-05-16T04:50:41.917Z,18.55
2019-05-16T04:53:07.782Z,18.70
2019-05-16T04:55:34.003Z,17.70
2019-05-16T04:58:01.438Z,21.33
2019-05-16T05:00:31.596Z,20.10
2019-05-16T05:02:56.182Z,21.12
2019-05-16T05:05:22.340Z,19.90
2019-05-16T05:07:51.131Z,16.45
2019-05-16T05:10:16.760Z,18.35
2019-05-16T05:12:42.995Z,17.85
2019-05-16T05:15:11.153Z,17.75
2019-05-16T05:17:37.894Z,17.87
2019-05-16T05:20:05.781Z,17.02
2019-05-16T05:22:31.960Z,18.25
2019-05-16T05:25:00.068Z,18.80
2019-05-16T05:27:26.259Z,16.77
2019-05-16T05:29:52.458Z,18.75
2019-05-16T05:32:20.079Z,17.10
2019-05-16T05:34:46.508Z,17.77
2019-05-16T05:37:12.887Z,16.00
2019-05-16T05:39:39.669Z,18.10
2019-05-16T05:42:06.064Z,16.42
2019-05-16T05:44:32.282Z,15.85
2019-05-16T05:47:00.521Z,15.43
2019-05-16T05:49:27.113Z,15.83
2019-05-16T05:51:53.323Z,15.70
2019-05-16T05:54:20.343Z,15.48
2019-05-16T05:56:46.877Z,16.10
2019-05-16T05:59:13.064Z,20.70
2019-05-16T06:01:40.722Z,17.50
2019-05-16T06:04:10.418Z,16.93
2019-05-16T06:06:36.317Z,18.82
2019-05-16T06:09:04.708Z,16.97
2019-05-16T06:11:30.875Z,20.25
2019-05-16T06:13:57.075Z,14.03
2019-05-16T06:16:23.251Z,14.58
2019-05-16T06:18:50.318Z,17.85
2019-05-16T06:21:16.827Z,16.50
2019-05-16T06:23:43.046Z,15.95
2019-05-16T06:26:12.043Z,17.60
2019-05-16T06:28:37.327Z,21.05
2019-05-16T06:31:03.505Z,18.95
2019-05-16T06:33:30.486Z,20.77
2019-05-16T06:35:56.977Z,21.48
2019-05-16T06:38:23.151Z,19.17
2019-05-16T06:40:52.202Z,18.62
2019-05-16T06:43:17.380Z,20.00
2019-05-16T06:45:43.879Z,19.05
2019-05-16T06:48:10.149Z,21.23
2019-05-16T06:50:36.452Z,21.55
2019-05-16T06:53:02.910Z,21.05
2019-05-16T06:55:30.198Z,18.37
2019-05-16T06:57:57.381Z,18.98
2019-05-16T07:00:23.927Z,20.45
2019-05-16T07:02:50.453Z,19.52
2019-05-16T07:05:16.752Z,18.60
2019-05-16T07:07:44.073Z,18.80
2019-05-16T07:10:10.349Z,16.10
2019-05-16T07:12:36.605Z,17.17
2019-05-16T07:15:06.885Z,17.15
2019-05-16T07:17:33.141Z,15.20
2019-05-16T07:20:00.809Z,15.38
2019-05-16T07:22:27.211Z,13.00
2019-05-16T07:24:53.365Z,13.78
2019-05-16T07:27:21.894Z,14.60
2019-05-16T07:29:47.675Z,15.13
2019-05-16T07:32:13.941Z,14.75
2019-05-16T07:34:40.406Z,13.00
2019-05-16T07:37:06.840Z,15.48
2019-05-16T07:39:33.112Z,14.87
2019-05-16T07:41:59.992Z,13.35
2019-05-16T07:44:26.409Z,13.18
2019-05-16T07:46:52.672Z,14.75
2019-05-16T07:49:19.737Z,12.93
2019-05-16T07:51:46.107Z,16.37
2019-05-16T07:54:12.297Z,13.72
2019-05-16T07:56:40.751Z,14.90
2019-05-16T07:59:06.533Z,13.20
2019-05-16T08:01:32.768Z,14.75
2019-05-16T08:03:59.998Z,11.08
2019-05-16T08:06:26.449Z,12.82
2019-05-16T08:08:52.626Z,13.32
2019-05-16T08:11:20.536Z,12.15
2019-05-16T08:13:46.914Z,10.65
2019-05-16T08:16:13.105Z,10.72
2019-05-16T08:18:44.719Z,11.75
2019-05-16T08:21:07.365Z,9.78
2019-05-16T08:23:33.747Z,9.30
2019-05-16T08:26:01.148Z,9.78
2019-05-16T08:28:30.807Z,9.78
2019-05-16T08:30:57.146Z,8.93
2019-05-16T08:33:23.397Z,8.88
2019-05-16T08:38:21.110Z,10.30
2019-05-16T08:41:04.675Z,8.33
2019-05-16T08:43:14.093Z,8.73
2019-05-16T08:48:11.317Z,8.45
2019-05-16T08:50:36.708Z,9.48
2019-05-16T08:53:12.897Z,8.88
2019-05-16T08:55:37.220Z,9.20
2019-05-16T08:58:03.404Z,9.75
2019-05-16T09:00:33.450Z,8.13
2019-05-16T09:03:01.455Z,8.98
2019-05-16T09:05:25.761Z,8.90
2019-05-16T09:10:31.460Z,8.60
2019-05-16T09:10:31.604Z,9.23
2019-05-16T09:10:32.874Z,8.78
2019-05-16T09:12:48.690Z,8.53
2019-05-16T09:15:17.111Z,8.78
2019-05-16T09:17:43.200Z,8.85
2019-05-16T09:20:09.860Z,8.48
2019-05-16T09:22:37.808Z,9.75
2019-05-16T09:25:08.086Z,9.78
2019-05-16T09:27:33.666Z,8.25
2019-05-16T09:29:59.853Z,8.08
2019-05-16T09:32:27.868Z,9.00
2019-05-16T09:34:56.980Z,10.08
2019-05-16T09:37:22.260Z,9.33
2019-05-16T09:39:48.762Z,9.60
2019-05-16T09:42:17.142Z,9.28
2019-05-16T09:44:43.210Z,8.45
2019-05-16T09:47:09.369Z,7.60
2019-05-16T09:49:37.138Z,7.85
2019-05-16T09:52:03.871Z,9.05
2019-05-16T09:54:30.104Z,9.18
2019-05-16T09:56:57.135Z,7.20
2019-05-16T09:59:23.574Z,7.00
2019-05-16T10:01:49.794Z,9.13
2019-05-16T10:04:17.449Z,8.38
2019-05-16T10:06:43.864Z,8.25
2019-05-16T10:09:10.038Z,8.23
2019-05-16T10:11:42.082Z,8.30
2019-05-16T10:14:07.076Z,7.72
2019-05-16T10:16:32.872Z,8.58
2019-05-16T10:18:59.051Z,8.45
2019-05-16T10:21:27.148Z,7.75
2019-05-16T10:23:53.340Z,7.83
2019-05-16T10:26:19.637Z,8.90
2019-05-16T10:28:46.853Z,9.28
2019-05-16T10:31:13.154Z,8.55
2019-05-16T10:33:39.458Z,8.73
2019-05-16T10:36:08.163Z,7.78
2019-05-16T10:38:33.743Z,8.28
2019-05-16T10:40:59.920Z,9.28
2019-05-16T10:43:26.580Z,7.78
2019-05-16T10:45:53.777Z,7.25
2019-05-16T10:48:20.218Z,7.75
2019-05-16T10:50:47.831Z,8.88
2019-05-16T10:53:33.524Z,8.53
2019-05-16T10:55:42.749Z,8.68
2019-05-16T10:58:09.126Z,7.80
2019-05-16T11:01:05.109Z,11.33
2019-05-16T11:03:03.544Z,8.55
2019-05-16T11:05:35.885Z,7.55
2019-05-16T11:07:57.978Z,8.70
2019-05-16T11:10:26.903Z,8.60
2019-05-16T11:12:55.624Z,8.38
2019-05-16T11:15:20.646Z,8.50
2019-05-16T11:17:46.864Z,9.13
2019-05-16T11:20:19.798Z,9.18
2019-05-16T11:22:47.561Z,8.93
2019-05-16T11:25:24.773Z,10.18
2019-05-16T11:27:41.339Z,9.75
2019-05-16T11:30:08.440Z,9.88
2019-05-16T11:32:37.288Z,8.50
2019-05-16T11:35:07.417Z,9.83
2019-05-16T11:37:37.521Z,8.75
2019-05-16T11:40:06.751Z,11.10
2019-05-16T11:42:37.526Z,9.03
2019-05-16T11:45:09.224Z,9.15
2019-05-16T11:47:36.825Z,8.95
2019-05-16T11:50:08.472Z,9.25
2019-05-16T11:52:34.758Z,9.65
2019-05-16T11:55:03.873Z,8.98
2019-05-16T11:57:30.788Z,8.85
2019-05-16T11:59:56.974Z,8.58
2019-05-16T12:02:23.359Z,10.38
2019-05-16T12:04:49.554Z,9.75
2019-05-16T12:07:19.204Z,9.55
2019-05-16T12:09:50.023Z,7.97
2019-05-16T12:12:11.961Z,8.85
2019-05-16T12:14:38.760Z,9.63
2019-05-16T12:17:07.268Z,10.00
2019-05-16T12:19:37.731Z,8.98
2019-05-16T12:22:02.361Z,9.15
2019-05-16T12:24:36.472Z,10.78
2019-05-16T12:26:56.872Z,9.38
2019-05-16T12:29:27.930Z,9.43
2019-05-16T12:31:58.514Z,9.48
2019-05-16T12:34:21.033Z,11.05
2019-05-16T12:36:47.429Z,10.00
2019-05-16T12:39:13.807Z,9.20
2019-05-16T12:41:41.434Z,9.90
2019-05-16T12:44:08.156Z,11.70
2019-05-16T12:46:36.554Z,12.03
2019-05-16T12:49:03.211Z,11.05
2019-05-16T12:51:29.422Z,10.65
2019-05-16T12:53:57.208Z,9.25
2019-05-16T12:56:23.655Z,9.05
2019-05-16T12:58:50.946Z,10.25
2019-05-16T13:01:20.436Z,9.48
2019-05-16T13:03:47.982Z,10.28
2019-05-16T13:06:13.487Z,11.85
2019-05-16T13:08:39.661Z,10.03
2019-05-16T13:11:07.056Z,15.00
2019-05-16T13:13:33.785Z,14.90
2019-05-16T13:15:59.940Z,11.03
2019-05-16T13:18:27.574Z,10.53
2019-05-16T13:20:54.019Z,9.18
2019-05-16T13:23:20.221Z,10.53
2019-05-16T13:25:48.071Z,10.75
2019-05-16T13:28:14.927Z,12.50
2019-05-16T13:30:41.149Z,10.38
2019-05-16T13:33:08.408Z,8.78
2019-05-16T13:35:36.913Z,11.55
2019-05-16T13:38:02.674Z,10.40
2019-05-16T13:40:28.826Z,9.75
2019-05-16T13:42:57.190Z,10.43
2019-05-16T13:45:23.123Z,11.03
2019-05-16T13:47:49.360Z,11.55
2019-05-16T13:50:16.831Z,10.03
2019-05-16T13:52:43.271Z,9.58
2019-05-16T13:55:09.746Z,9.83
2019-05-16T13:57:37.411Z,10.58
2019-05-16T14:00:07.560Z,8.83
2019-05-16T14:02:37.541Z,9.73
2019-05-16T14:05:07.691Z,12.70
2019-05-16T14:07:37.040Z,9.50
2019-05-16T14:10:05.347Z,11.05
2019-05-16T14:12:31.697Z,11.00
2019-05-16T14:14:57.860Z,9.98
2019-05-16T14:17:24.056Z,13.72
2019-05-16T14:19:50.317Z,12.60
2019-05-16T14:22:17.535Z,12.18
2019-05-16T14:24:44.099Z,12.37
2019-05-16T14:27:10.292Z,11.53
2019-05-16T14:29:37.702Z,12.90
2019-05-16T14:32:04.220Z,12.05
2019-05-16T14:34:30.709Z,14.93
2019-05-16T14:36:57.876Z,12.70
2019-05-16T14:39:28.093Z,11.80
2019-05-16T14:41:52.350Z,13.70
2019-05-16T14:44:18.672Z,17.42
2019-05-16T14:46:47.460Z,12.53
2019-05-16T14:49:13.406Z,13.80
2019-05-16T14:51:39.700Z,14.00
2019-05-16T14:54:07.449Z,14.03
2019-05-16T14:56:34.042Z,13.35
2019-05-16T14:59:00.203Z,14.53
2019-05-16T15:01:47.274Z,15.78
2019-05-16T15:04:13.446Z,13.95
2019-05-16T15:06:40.734Z,14.13
2019-05-16T15:09:07.746Z,13.65
2019-05-16T15:11:34.078Z,13.30
2019-05-16T15:14:00.384Z,13.28
2019-05-16T15:16:27.326Z,13.40
2019-05-16T15:18:53.867Z,14.80
2019-05-16T15:21:20.098Z,13.53
2019-05-16T15:23:47.219Z,14.70
2019-05-16T15:26:13.409Z,13.25
2019-05-16T15:28:39.722Z,12.90
2019-05-16T15:31:07.012Z,13.65
2019-05-16T15:33:36.519Z,14.55
2019-05-16T15:36:02.699Z,17.70
2019-05-16T15:38:29.137Z,13.83
2019-05-16T15:40:57.396Z,16.75
2019-05-16T15:43:23.481Z,13.43
2019-05-16T15:45:52.955Z,14.87
2019-05-16T15:48:17.906Z,13.93
2019-05-16T15:50:44.177Z,14.65
2019-05-16T15:53:11.574Z,14.20
2019-05-16T15:55:37.936Z,15.40
2019-05-16T15:58:09.787Z,14.55
2019-05-16T16:00:48.253Z,16.77
2019-05-16T16:03:17.530Z,13.48
2019-05-16T16:05:44.341Z,14.40
2019-05-16T16:08:10.999Z,14.47
2019-05-16T16:10:39.245Z,13.95
2019-05-16T16:13:06.837Z,15.58
2019-05-16T16:15:34.094Z,16.65
2019-05-16T16:18:00.297Z,15.23
2019-05-16T16:20:27.311Z,17.30
2019-05-16T16:22:53.707Z,15.58
2019-05-16T16:25:19.947Z,16.07
2019-05-16T16:27:46.196Z,16.48
2019-05-16T16:30:13.031Z,17.07
2019-05-16T16:32:39.419Z,15.83
2019-05-16T16:35:08.082Z,17.12
2019-05-16T16:37:34.153Z,17.05
2019-05-16T16:40:00.310Z,14.13
2019-05-16T16:42:27.236Z,15.65
2019-05-16T16:44:53.704Z,15.15
2019-05-16T16:47:19.876Z,16.07
2019-05-16T16:49:46.062Z,17.50
2019-05-16T16:52:12.468Z,17.40
2019-05-16T16:54:38.716Z,15.75
2019-05-16T16:57:07.507Z,16.85
2019-05-16T16:59:33.135Z,16.45
2019-05-16T17:01:59.383Z,16.48
2019-05-16T17:04:26.699Z,16.35
2019-05-16T17:06:53.048Z,16.12
2019-05-16T17:09:19.229Z,17.25
2019-05-16T17:11:46.528Z,16.73
2019-05-16T17:14:13.031Z,16.05
2019-05-16T17:16:39.279Z,19.60
2019-05-16T17:19:07.668Z,18.87
2019-05-16T17:21:33.655Z,16.60
2019-05-16T17:23:59.841Z,17.32
2019-05-16T17:26:27.589Z,18.52
2019-05-16T17:28:54.052Z,17.82
2019-05-16T17:31:20.252Z,18.48
2019-05-16T17:33:46.445Z,20.10
2019-05-16T17:36:13.008Z,18.30
2019-05-16T17:38:39.246Z,19.35
2019-05-16T17:41:07.468Z,17.25
2019-05-16T17:43:33.710Z,19.70
2019-05-16T17:45:59.968Z,21.23
2019-05-16T17:48:29.605Z,21.07
2019-05-16T17:50:54.319Z,18.35
2019-05-16T17:53:20.601Z,19.23
2019-05-16T17:55:47.464Z,20.80
2019-05-16T17:58:13.808Z,18.15
2019-05-16T18:00:40.087Z,18.85
2019-05-16T18:03:06.809Z,18.32
2019-05-16T18:05:33.203Z,19.37
2019-05-16T18:07:59.501Z,19.67
2019-05-16T18:10:27.093Z,18.62
2019-05-16T18:12:53.617Z,20.23
2019-05-16T18:15:20.708Z,19.17
2019-05-16T18:17:47.128Z,18.70
2019-05-16T18:20:13.808Z,18.70
2019-05-16T18:22:39.980Z,18.27
2019-05-16T18:25:07.413Z,18.02
2019-05-16T18:27:33.578Z,17.90
2019-05-16T18:29:59.743Z,18.20
2019-05-16T18:32:26.567Z,19.45
2019-05-16T18:34:53.001Z,16.90
2019-05-16T18:37:19.196Z,18.00
2019-05-16T18:39:47.275Z,18.02
2019-05-16T18:42:13.784Z,18.77
2019-05-16T18:44:39.960Z,19.17
2019-05-16T18:47:10.484Z,19.15
2019-05-16T18:49:36.589Z,16.23
2019-05-16T18:52:03.466Z,19.82
2019-05-16T18:54:29.626Z,19.82
2019-05-16T18:56:57.866Z,19.75
2019-05-16T18:59:26.098Z,17.77
2019-05-16T19:01:52.085Z,19.52
2019-05-16T19:04:18.487Z,17.45
2019-05-16T19:06:44.837Z,20.43
2019-05-16T19:09:11.027Z,17.42
2019-05-16T19:11:37.393Z,19.70
2019-05-16T19:14:03.677Z,18.55
2019-05-16T19:16:29.918Z,19.12
2019-05-16T19:18:56.560Z,20.00
2019-05-16T19:21:26.133Z,20.82
2019-05-16T19:23:52.854Z,22.27
2019-05-16T19:26:19.599Z,18.10
2019-05-16T19:28:46.698Z,20.17
2019-05-16T19:31:14.294Z,21.37
2019-05-16T19:33:40.532Z,22.48
2019-05-16T19:36:07.434Z,22.45
2019-05-16T19:38:33.856Z,22.75
2019-05-16T19:41:00.041Z,20.88
2019-05-16T19:43:26.633Z,19.17
2019-05-16T19:45:53.114Z,22.10
2019-05-16T19:48:19.273Z,23.02
2019-05-16T19:50:46.413Z,26.15
2019-05-16T19:53:12.705Z,22.80
2019-05-16T19:55:38.909Z,22.98
2019-05-16T19:58:06.898Z,25.37
2019-05-16T20:00:33.190Z,23.18
2019-05-16T20:02:59.371Z,22.80
2019-05-16T20:05:26.688Z,22.30
2019-05-16T20:07:53.276Z,23.22
2019-05-16T20:10:19.646Z,23.38
2019-05-16T20:12:46.342Z,22.37
2019-05-16T20:15:13.426Z,23.60
2019-05-16T20:17:51.005Z,20.23
2019-05-16T20:20:08.730Z,22.42
2019-05-16T20:22:36.945Z,23.52
2019-05-16T20:25:04.775Z,25.72
2019-05-16T20:27:31.164Z,23.45
2019-05-16T20:29:59.425Z,22.80
2019-05-16T20:32:27.519Z,24.45
2019-05-16T20:34:53.506Z,23.25
2019-05-16T20:37:19.704Z,24.23
2019-05-16T20:39:46.591Z,25.25
2019-05-16T20:42:13.962Z,24.92
2019-05-16T20:44:40.117Z,23.95
2019-05-16T20:47:07.247Z,25.50
2019-05-16T20:49:33.618Z,24.75
2019-05-16T20:51:59.804Z,23.22
2019-05-16T20:54:26.834Z,23.90
2019-05-16T20:56:53.174Z,25.75
2019-05-16T20:59:19.364Z,26.02
2019-05-16T21:01:46.513Z,27.17
2019-05-16T21:04:13.616Z,27.17
2019-05-16T21:06:39.801Z,24.98
2019-05-16T21:09:06.728Z,24.50
2019-05-16T21:11:33.201Z,24.00
2019-05-16T21:13:59.385Z,25.80
2019-05-16T21:16:27.045Z,23.47
2019-05-16T21:18:53.602Z,25.72
2019-05-16T21:21:19.756Z,23.83
2019-05-16T21:23:46.983Z,22.93
2019-05-16T21:26:13.304Z,24.52
2019-05-16T21:28:39.614Z,22.90
2019-05-16T21:31:07.423Z,26.60
2019-05-16T21:33:36.230Z,22.37
2019-05-16T21:36:02.309Z,25.85
2019-05-16T21:38:28.613Z,24.90
2019-05-16T21:40:58.171Z,23.90
2019-05-16T21:43:22.862Z,23.45
2019-05-16T21:45:49.039Z,22.87
2019-05-16T21:48:19.199Z,25.10
2019-05-16T21:50:46.306Z,24.85
2019-05-16T21:53:12.555Z,22.42
2019-05-16T21:55:38.758Z,26.73
2019-05-16T21:58:04.951Z,24.20
2019-05-16T22:00:37.507Z,26.17
2019-05-16T22:03:04.322Z,28.80
2019-05-16T22:05:30.813Z,24.87
2019-05-16T22:07:56.998Z,26.65
2019-05-16T22:10:23.320Z,30.57
2019-05-16T22:12:51.388Z,28.15
2019-05-16T22:15:17.673Z,28.80
2019-05-16T22:17:47.142Z,29.30
2019-05-16T22:20:16.592Z,32.28
2019-05-16T22:22:43.098Z,29.92
2019-05-16T22:25:09.781Z,29.35
2019-05-16T22:27:36.033Z,30.08
2019-05-16T22:30:09.001Z,28.57
2019-05-16T22:32:36.334Z,32.35
2019-05-16T22:35:07.894Z,30.75
2019-05-16T22:37:46.133Z,33.18
2019-05-16T22:40:02.767Z,30.25
2019-05-16T22:42:29.177Z,31.00
2019-05-16T22:44:56.362Z,34.83
2019-05-16T22:47:22.558Z,34.00
2019-05-16T22:49:48.717Z,33.45
2019-05-16T22:52:17.048Z,32.53
2019-05-16T22:54:42.989Z,32.85
2019-05-16T22:57:09.178Z,37.30
2019-05-16T22:59:35.374Z,34.15
2019-05-16T23:02:02.802Z,37.17
2019-05-16T23:04:29.096Z,36.53
2019-05-16T23:06:56.472Z,39.10
2019-05-16T23:09:22.904Z,40.00
2019-05-16T23:11:49.169Z,38.35
2019-05-16T23:14:17.027Z,36.17
2019-05-16T23:16:43.418Z,34.38
2019-05-16T23:19:09.599Z,34.90
2019-05-16T23:21:36.787Z,35.13
2019-05-16T23:24:03.718Z,35.68
2019-05-16T23:26:29.890Z,39.40
2019-05-16T23:28:56.518Z,39.05
2019-05-16T23:31:22.898Z,37.23
2019-05-16T23:33:49.390Z,36.98
2019-05-16T23:36:17.466Z,38.23
2019-05-16T23:38:44.280Z,39.73
2019-05-16T23:41:10.486Z,38.38
2019-05-16T23:43:37.271Z,38.85
2019-05-16T23:46:03.901Z,40.12
2019-05-16T23:48:30.060Z,38.23
2019-05-16T23:50:56.940Z,35.95
2019-05-16T23:53:23.248Z,37.70
2019-05-16T23:55:49.401Z,42.35
2019-05-16T23:58:15.577Z,40.88
